Time;durP1;ratioP1;P1;durP2;ratioP2;P2;SDS_P1;SDS_P2;PMS_P1;PMS_P2;Temp;Humidity;BMP_temperature;BMP_pressure;BME280_temperature;BME280_humidity;BME280_pressure;Samples;Min_cycle;Max_cycle;Signal;HPM_P1;HPM_P2
2022/09/05 00:00:11;;;;;;;;;;;;;;;17.99;79.15;100916.88;5003763;28;1879;-85
2022/09/05 00:02:50;;;;;;;;;;;;;;;18.03;78.77;100915.09;4996708;28;1781;-85
2022/09/05 00:05:33;;;;;;;;;;;;;;;18.01;79.76;100922.09;4995963;28;1472;-85
2022/09/05 00:08:06;;;;;;;;;;;;;;;17.84;79.43;100922.84;4990639;28;1734;-85
2022/09/05 00:10:34;;;;;;;;;;;;;;;17.70;79.46;100925.69;4995406;28;1551;-85
2022/09/05 00:13:01;;;;;;;;;;;;;;;17.83;78.90;100923.97;4998303;28;1504;-86
2022/09/05 00:16:02;;;;;;;;;;;;;;;17.76;79.86;100926.41;4996481;28;1709;-85
2022/09/05 00:18:40;;;;;;;;;;;;;;;17.64;80.01;100921.44;4975115;28;1452;-85
2022/09/05 00:21:24;;;;;;;;;;;;;;;17.57;80.74;100926.56;4988889;28;1636;-85
2022/09/05 00:23:53;;;;;;;;;;;;;;;17.54;80.31;100924.44;5012158;28;1546;-85
2022/09/05 00:26:33;;;;;;;;;;;;;;;17.49;79.61;100929.28;4995317;28;1804;-86
2022/09/05 00:29:08;;;;;;;;;;;;;;;17.56;80.11;100929.66;4996978;28;1514;-85
2022/09/05 00:31:56;;;;;;;;;;;;;;;17.53;80.25;100930.28;4995915;28;1282;-84
2022/09/05 00:34:38;;;;;;;;;;;;;;;17.47;80.65;100934.31;4995344;28;1587;-86
2022/09/05 00:37:04;;;;;;;;;;;;;;;17.37;81.41;100930.69;4990062;28;1655;-85
2022/09/05 00:39:37;;;;;;;;;;;;;;;17.38;80.43;100924.00;4995323;28;1941;-85
2022/09/05 00:42:10;;;;;;;;;;;;;;;17.23;81.11;100931.88;4995281;28;1482;-86
2022/09/05 00:44:46;;;;;;;;;;;;;;;17.05;81.98;100938.41;4995646;28;1471;-85
2022/09/05 00:47:32;;;;;;;;;;;;;;;17.03;82.00;100934.00;5006031;28;1332;-85
2022/09/05 00:50:00;;;;;;;;;;;;;;;17.08;82.25;100943.34;5009668;28;1733;-85
2022/09/05 00:52:36;;;;;;;;;;;;;;;17.07;81.58;100936.16;4994967;28;1392;-83
2022/09/05 00:55:13;;;;;;;;;;;;;;;16.95;81.79;100940.28;4996254;28;1814;-85
2022/09/05 00:57:57;;;;;;;;;;;;;;;16.94;81.55;100943.34;4995428;28;1415;-85
2022/09/05 01:00:31;;;;;;;;;;;;;;;16.89;81.80;100938.78;4995663;28;1961;-84
2022/09/05 01:03:01;;;;;;;;;;;;;;;16.90;82.07;100936.84;4995128;28;1501;-85
2022/09/05 01:05:45;;;;;;;;;;;;;;;16.91;82.06;100946.78;4995092;28;1365;-84
2022/09/05 01:08:29;;;;;;;;;;;;;;;16.84;81.71;100941.63;5008029;28;1463;-85
2022/09/05 01:10:54;;;;;;;;;;;;;;;16.82;81.91;100949.44;5001718;28;1765;-84
2022/09/05 01:13:44;;;;;;;;;;;;;;;16.79;81.99;100954.78;4996139;28;1769;-85
2022/09/05 01:16:09;;;;;;;;;;;;;;;16.71;82.49;100953.56;4990954;28;1204;-85
2022/09/05 01:18:53;;;;;;;;;;;;;;;16.58;82.56;100957.16;4995311;28;1283;-84
2022/09/05 01:21:18;;;;;;;;;;;;;;;16.43;83.80;100955.50;4993291;28;1677;-84
2022/09/05 01:24:08;;;;;;;;;;;;;;;16.57;83.55;100952.75;5009278;28;1555;-85
2022/09/05 01:26:39;;;;;;;;;;;;;;;16.70;83.76;100954.69;5005816;28;1197;-85
2022/09/05 01:29:09;;;;;;;;;;;;;;;16.65;82.61;100952.06;4995768;28;1470;-84
2022/09/05 01:31:58;;;;;;;;;;;;;;;16.57;83.08;100956.34;4988291;28;1602;-85
2022/09/05 01:34:38;;;;;;;;;;;;;;;16.52;83.29;100948.13;4997481;28;1184;-85
2022/09/05 01:37:15;;;;;;;;;;;;;;;16.48;83.42;100946.31;4993997;28;1447;-85
2022/09/05 01:39:48;;;;;;;;;;;;;;;16.37;83.24;100947.66;4997607;28;1926;-85
2022/09/05 01:42:32;;;;;;;;;;;;;;;16.35;83.36;100953.47;4997035;28;1235;-85
2022/09/05 01:45:16;;;;;;;;;;;;;;;16.33;83.73;100947.47;4997267;28;1345;-85
2022/09/05 01:47:48;;;;;;;;;;;;;;;16.45;83.30;100944.16;5005182;28;1478;-85
2022/09/05 01:50:36;;;;;;;;;;;;;;;16.42;83.89;100945.59;5002208;28;1638;-85
2022/09/05 01:53:07;;;;;;;;;;;;;;;16.45;83.56;100942.22;4997716;28;1613;-85
2022/09/05 01:55:44;;;;;;;;;;;;;;;16.39;83.44;100942.63;5004192;28;1283;-84
2022/09/05 01:58:23;;;;;;;;;;;;;;;16.37;83.95;100942.94;4993294;28;1579;-85
2022/09/05 02:01:17;;;;;;;;;;;;;;;16.27;83.75;100951.44;4995040;28;1964;-86
2022/09/05 02:03:45;;;;;;;;;;;;;;;16.13;84.19;100942.34;4941321;28;1768;-85
2022/09/05 02:06:26;;;;;;;;;;;;;;;16.19;84.45;100941.94;4989983;28;1667;-84
2022/09/05 02:09:04;;;;;;;;;;;;;;;16.10;84.13;100946.53;4998388;28;1453;-84
2022/09/05 02:11:52;;;;;;;;;;;;;;;16.12;84.50;100946.22;5005406;28;1840;-84
2022/09/05 02:14:30;;;;;;;;;;;;;;;16.12;84.12;100946.22;4998403;28;1143;-86
2022/09/05 02:17:07;;;;;;;;;;;;;;;16.09;84.21;100944.88;5005070;28;1627;-85
2022/09/05 02:19:40;;;;;;;;;;;;;;;16.09;84.49;100942.13;5004040;28;1934;-86
2022/09/05 02:22:08;;;;;;;;;;;;;;;15.83;84.98;100944.56;5021540;28;1758;-85
2022/09/05 02:24:39;;;;;;;;;;;;;;;15.95;84.82;100946.00;4989744;28;1400;-85
2022/09/05 02:27:23;;;;;;;;;;;;;;;15.99;84.59;100945.09;4999751;28;1786;-85
2022/09/05 02:30:05;;;;;;;;;;;;;;;16.04;84.57;100952.47;4995557;28;1350;-85
2022/09/05 02:32:36;;;;;;;;;;;;;;;15.94;85.06;100950.72;4993557;28;1452;-85
2022/09/05 02:35:14;;;;;;;;;;;;;;;15.79;85.01;100951.00;4996883;28;1417;-86
2022/09/05 02:37:49;;;;;;;;;;;;;;;15.84;85.26;100948.97;4996710;28;1761;-85
2022/09/05 02:40:18;;;;;;;;;;;;;;;15.85;85.06;100947.03;4993595;28;1902;-85
2022/09/05 02:42:51;;;;;;;;;;;;;;;15.84;85.02;100950.91;4996874;28;1191;-85
2022/09/05 02:45:36;;;;;;;;;;;;;;;15.83;85.11;100947.31;4999781;28;1531;-83
2022/09/05 02:48:09;;;;;;;;;;;;;;;15.88;84.94;100949.19;4997583;28;1436;-84
2022/09/05 02:50:43;;;;;;;;;;;;;;;15.79;84.48;100942.72;4997012;28;1213;-84
2022/09/05 02:53:10;;;;;;;;;;;;;;;15.82;84.96;100942.91;4998957;28;1664;-85
2022/09/05 02:55:53;;;;;;;;;;;;;;;15.76;84.79;100946.09;5003793;28;1670;-85
2022/09/05 02:58:27;;;;;;;;;;;;;;;15.46;86.26;100945.50;4987538;28;1608;-85
2022/09/05 03:01:13;;;;;;;;;;;;;;;15.55;85.89;100939.31;5000807;28;1946;-84
2022/09/05 03:03:45;;;;;;;;;;;;;;;15.53;85.55;100939.56;4992657;28;1670;-83
2022/09/05 03:06:13;;;;;;;;;;;;;;;15.46;85.76;100934.44;4999537;28;1547;-84
2022/09/05 03:08:50;;;;;;;;;;;;;;;15.34;86.41;100938.78;5003155;28;1331;-85
2022/09/05 03:11:34;;;;;;;;;;;;;;;15.35;86.31;100938.50;4997744;28;1448;-85
2022/09/05 03:14:17;;;;;;;;;;;;;;;15.42;85.97;100938.09;4996946;28;1488;-85
2022/09/05 03:16:48;;;;;;;;;;;;;;;15.45;86.24;100935.56;4999361;28;1224;-84
2022/09/05 03:19:33;;;;;;;;;;;;;;;15.46;85.52;100936.41;4984439;28;1890;-86
2022/09/05 03:22:17;;;;;;;;;;;;;;;15.44;86.15;100938.63;4985381;28;1591;-85
2022/09/05 03:25:04;;;;;;;;;;;;;;;15.39;85.55;100936.78;4992161;28;1809;-85
2022/09/05 03:27:30;;;;;;;;;;;;;;;15.47;85.89;100938.03;4990741;28;1483;-84
2022/09/05 03:30:03;;;;;;;;;;;;;;;15.40;85.47;100938.41;4986618;28;1507;-84
2022/09/05 03:32:47;;;;;;;;;;;;;;;15.43;85.64;100939.75;4995931;28;1429;-86
2022/09/05 03:35:32;;;;;;;;;;;;;;;15.46;85.73;100934.44;4986557;28;1695;-85
2022/09/05 03:38:12;;;;;;;;;;;;;;;15.40;85.60;100938.41;4997539;28;1513;-85
2022/09/05 03:40:44;;;;;;;;;;;;;;;15.33;85.82;100943.50;4999687;28;1957;-85
2022/09/05 03:43:29;;;;;;;;;;;;;;;15.23;85.93;100932.63;5000580;28;1718;-85
2022/09/05 03:46:13;;;;;;;;;;;;;;;15.17;85.91;100944.88;4992984;28;1797;-85
2022/09/05 03:48:44;;;;;;;;;;;;;;;15.08;86.54;100938.38;5036660;23;1695;-84
2022/09/05 03:51:28;;;;;;;;;;;;;;;15.18;86.54;100943.75;5016240;28;1411;-84
2022/09/05 03:54:13;;;;;;;;;;;;;;;14.95;87.05;100939.16;5019574;28;1445;-84
2022/09/05 03:56:38;;;;;;;;;;;;;;;14.91;87.44;100946.38;5018115;28;1405;-84
2022/09/05 03:59:06;;;;;;;;;;;;;;;15.00;86.77;100950.09;5020817;28;1914;-83
2022/09/05 04:01:40;;;;;;;;;;;;;;;15.02;86.01;100953.38;5017815;28;1428;-84
2022/09/05 04:04:07;;;;;;;;;;;;;;;14.99;86.16;100956.72;5021941;28;1649;-84
2022/09/05 04:06:39;;;;;;;;;;;;;;;14.77;87.39;100957.34;5020444;28;1692;-84
2022/09/05 04:09:12;;;;;;;;;;;;;;;14.72;87.19;100957.38;5020727;28;1360;-83
2022/09/05 04:11:39;;;;;;;;;;;;;;;14.87;87.34;100959.13;5017198;28;1402;-83
2022/09/05 04:14:07;;;;;;;;;;;;;;;14.87;87.30;100953.63;5014226;28;1736;-84
2022/09/05 04:16:43;;;;;;;;;;;;;;;14.86;87.08;100960.25;5008112;28;1753;-84
2022/09/05 04:19:12;;;;;;;;;;;;;;;14.78;87.83;100958.97;5017168;28;1969;-84
2022/09/05 04:22:13;;;;;;;;;;;;;;;14.84;88.09;100963.28;5011653;28;1421;-84
2022/09/05 04:24:49;;;;;;;;;;;;;;;14.88;87.85;100963.53;4996684;28;1783;-84
2022/09/05 04:27:22;;;;;;;;;;;;;;;14.89;87.45;100965.97;5017635;28;1791;-84
2022/09/05 04:29:56;;;;;;;;;;;;;;;14.91;87.41;100962.91;5007755;28;1395;-84
2022/09/05 04:32:26;;;;;;;;;;;;;;;14.90;87.36;100966.78;5019902;28;1563;-84
2022/09/05 04:35:07;;;;;;;;;;;;;;;14.88;87.60;100967.09;5017493;28;1461;-84
2022/09/05 04:37:53;;;;;;;;;;;;;;;14.81;87.96;100965.81;5017604;28;1118;-83
2022/09/05 04:40:39;;;;;;;;;;;;;;;14.88;88.27;100971.78;5015127;28;1899;-84
2022/09/05 04:43:08;;;;;;;;;;;;;;;14.81;87.96;100980.41;5015356;28;1895;-84
2022/09/05 04:45:37;;;;;;;;;;;;;;;14.88;87.67;100980.88;5009644;28;1655;-84
2022/09/05 04:48:04;;;;;;;;;;;;;;;14.93;87.59;100978.03;5019135;28;1487;-85
2022/09/05 04:50:31;;;;;;;;;;;;;;;14.92;87.43;100975.56;5033265;28;1524;-85
2022/09/05 04:53:15;;;;;;;;;;;;;;;14.93;87.75;100980.78;5016859;28;1986;-83
2022/09/05 04:55:42;;;;;;;;;;;;;;;14.95;88.44;100986.03;5017397;28;1319;-83
2022/09/05 04:58:24;;;;;;;;;;;;;;;14.94;87.93;100987.13;5010969;28;1548;-84
2022/09/05 05:00:49;;;;;;;;;;;;;;;14.95;88.58;100991.53;5019352;28;1898;-83
2022/09/05 05:03:16;;;;;;;;;;;;;;;14.93;88.00;100993.75;5020217;28;1158;-84
2022/09/05 05:05:47;;;;;;;;;;;;;;;14.97;88.77;100998.38;5020415;28;1374;-84
2022/09/05 05:08:23;;;;;;;;;;;;;;;14.99;88.87;101000.81;5016016;28;1931;-84
2022/09/05 05:10:58;;;;;;;;;;;;;;;14.97;88.29;101005.84;5016184;28;1761;-83
2022/09/05 05:13:30;;;;;;;;;;;;;;;15.00;89.47;101002.47;5014897;28;1331;-82
2022/09/05 05:16:15;;;;;;;;;;;;;;;15.05;89.26;101008.75;5011170;28;1282;-83
2022/09/05 05:18:51;;;;;;;;;;;;;;;15.03;89.18;101007.41;5017640;28;1586;-83
2022/09/05 05:21:21;;;;;;;;;;;;;;;15.09;89.38;101007.03;5017094;28;1349;-86
2022/09/05 05:23:49;;;;;;;;;;;;;;;15.12;88.96;101000.09;5013559;28;1690;-84
2022/09/05 05:26:35;;;;;;;;;;;;;;;15.17;89.43;101005.53;5015055;28;1762;-83
2022/09/05 05:29:07;;;;;;;;;;;;;;;15.19;89.55;101013.50;5016039;28;1467;-84
2022/09/05 05:31:34;;;;;;;;;;;;;;;15.16;89.78;101009.41;5015518;28;1228;-84
2022/09/05 05:34:38;;;;;;;;;;;;;;;15.17;89.61;101015.75;5015519;28;1378;-85
2022/09/05 05:37:07;;;;;;;;;;;;;;;15.22;89.75;101019.25;4994132;28;1634;-85
2022/09/05 05:39:35;;;;;;;;;;;;;;;15.27;90.27;101010.06;5005388;28;1898;-85
2022/09/05 05:42:01;;;;;;;;;;;;;;;15.29;90.06;101016.94;5003559;28;1399;-84
2022/09/05 05:44:28;;;;;;;;;;;;;;;15.32;89.85;101024.59;5015147;28;1148;-84
2022/09/05 05:46:59;;;;;;;;;;;;;;;15.37;90.21;101021.78;5013711;28;1368;-84
2022/09/05 05:49:38;;;;;;;;;;;;;;;15.38;90.18;101020.66;5014033;28;1431;-85
2022/09/05 05:52:03;;;;;;;;;;;;;;;15.47;90.88;101021.63;5011355;28;1731;-83
2022/09/05 05:54:28;;;;;;;;;;;;;;;15.40;91.38;101021.16;5007307;28;1245;-84
2022/09/05 05:57:12;;;;;;;;;;;;;;;15.51;91.59;101021.81;5014242;28;1345;-84
2022/09/05 05:59:46;;;;;;;;;;;;;;;15.61;91.42;101023.63;5014386;28;1906;-84
2022/09/05 06:02:27;;;;;;;;;;;;;;;15.68;91.38;101022.13;5014499;28;1228;-84
2022/09/05 06:05:16;;;;;;;;;;;;;;;15.82;90.76;101033.22;5014207;28;1061;-84
2022/09/05 06:07:51;;;;;;;;;;;;;;;15.85;90.03;101027.91;5013701;28;1410;-85
2022/09/05 06:10:23;;;;;;;;;;;;;;;15.85;89.83;101024.31;5023926;28;1377;-83
2022/09/05 06:12:50;;;;;;;;;;;;;;;15.92;90.12;101026.69;5039095;28;968;-83
2022/09/05 06:15:25;;;;;;;;;;;;;;;15.96;90.18;101019.44;5037654;28;1305;-84
2022/09/05 06:18:09;;;;;;;;;;;;;;;15.99;90.48;101025.16;5021944;28;1330;-85
2022/09/05 06:20:38;;;;;;;;;;;;;;;16.05;89.91;101020.38;5014713;28;1894;-84
2022/09/05 06:23:09;;;;;;;;;;;;;;;16.09;91.44;101024.97;5014975;28;1486;-84
2022/09/05 06:25:49;;;;;;;;;;;;;;;16.11;91.51;101022.72;5014055;28;1309;-84
2022/09/05 06:28:14;;;;;;;;;;;;;;;16.17;91.18;101026.22;5015292;28;1230;-83
2022/09/05 06:30:44;;;;;;;;;;;;;;;16.21;91.71;101025.31;5014315;28;879;-84
2022/09/05 06:33:32;;;;;;;;;;;;;;;16.22;91.58;101026.94;5014008;28;1285;-84
2022/09/05 06:36:13;;;;;;;;;;;;;;;16.26;92.50;101022.44;5012227;28;1490;-84
2022/09/05 06:38:47;;;;;;;;;;;;;;;16.27;92.24;101023.25;5013465;28;1400;-83
2022/09/05 06:41:20;;;;;;;;;;;;;;;16.31;90.85;101023.47;5013706;28;1351;-84
2022/09/05 06:43:57;;;;;;;;;;;;;;;16.33;89.73;101024.00;5015098;28;988;-85
2022/09/05 06:46:34;;;;;;;;;;;;;;;16.43;88.59;101024.59;5014019;28;1167;-84
2022/09/05 06:49:19;;;;;;;;;;;;;;;16.51;88.67;101020.28;5014539;28;1671;-85
2022/09/05 06:51:45;;;;;;;;;;;;;;;16.64;88.51;101028.63;5003640;28;1298;-84
2022/09/05 06:54:30;;;;;;;;;;;;;;;16.61;87.43;101031.19;5013870;28;946;-85
2022/09/05 06:57:18;;;;;;;;;;;;;;;16.56;88.29;101025.72;5012883;28;1206;-84
2022/09/05 06:59:58;;;;;;;;;;;;;;;16.54;88.60;101030.75;5014023;28;1910;-84
2022/09/05 07:02:39;;;;;;;;;;;;;;;16.57;89.13;101030.13;5012012;28;1450;-85
2022/09/05 07:05:04;;;;;;;;;;;;;;;16.69;88.30;101030.44;5013653;28;1434;-84
2022/09/05 07:07:44;;;;;;;;;;;;;;;16.76;89.01;101036.38;5016360;28;1204;-85
2022/09/05 07:10:35;;;;;;;;;;;;;;;16.81;88.32;101038.22;5017368;28;1510;-85
2022/09/05 07:13:15;;;;;;;;;;;;;;;16.84;89.34;101045.91;5015353;28;1371;-84
2022/09/05 07:15:54;;;;;;;;;;;;;;;16.88;88.17;101033.91;5018731;28;1190;-85
2022/09/05 07:18:34;;;;;;;;;;;;;;;16.97;88.30;101040.34;5015861;28;1418;-85
2022/09/05 07:21:20;;;;;;;;;;;;;;;17.06;86.94;101036.84;5011689;28;1895;-84
2022/09/05 07:23:48;;;;;;;;;;;;;;;17.13;86.50;101035.28;5017227;28;1241;-85
2022/09/05 07:26:15;;;;;;;;;;;;;;;17.26;86.42;101042.75;5016985;28;1286;-85
2022/09/05 07:28:42;;;;;;;;;;;;;;;17.36;85.89;101045.25;5024876;28;1234;-85
2022/09/05 07:31:21;;;;;;;;;;;;;;;17.51;85.92;101035.81;5015635;28;1435;-85
2022/09/05 07:33:47;;;;;;;;;;;;;;;17.61;85.03;101030.00;5014908;28;1420;-85
2022/09/05 07:36:18;;;;;;;;;;;;;;;17.57;85.59;101033.72;5016358;28;1009;-85
2022/09/05 07:38:49;;;;;;;;;;;;;;;17.60;84.85;101038.63;5015124;28;1324;-85
2022/09/05 07:41:14;;;;;;;;;;;;;;;17.63;85.05;101033.31;5014096;28;1885;-85
2022/09/05 07:43:42;;;;;;;;;;;;;;;17.62;85.38;101031.66;5014667;28;834;-85
2022/09/05 07:46:16;;;;;;;;;;;;;;;17.69;83.37;101031.25;5013772;28;1462;-85
2022/09/05 07:48:52;;;;;;;;;;;;;;;17.77;84.16;101031.31;5014244;28;1213;-84
2022/09/05 07:51:28;;;;;;;;;;;;;;;17.89;83.88;101027.94;5017235;28;1076;-85
2022/09/05 07:53:54;;;;;;;;;;;;;;;17.95;83.05;101032.19;5014582;28;901;-84
2022/09/05 07:56:38;;;;;;;;;;;;;;;18.00;83.36;101032.09;5013004;28;1350;-85
2022/09/05 07:59:07;;;;;;;;;;;;;;;18.11;83.56;101032.63;5013461;28;1959;-84
2022/09/05 08:01:33;;;;;;;;;;;;;;;18.11;83.35;101039.00;5017031;28;1153;-85
2022/09/05 08:03:58;;;;;;;;;;;;;;;18.13;85.08;101031.16;5015398;28;1250;-85
2022/09/05 08:06:24;;;;;;;;;;;;;;;18.13;85.78;101041.44;5013780;28;1218;-85
2022/09/05 08:08:52;;;;;;;;;;;;;;;18.18;84.75;101038.53;5015180;28;1319;-85
2022/09/05 08:11:18;;;;;;;;;;;;;;;18.22;83.43;101033.16;5015667;28;1324;-85
2022/09/05 08:13:56;;;;;;;;;;;;;;;18.21;83.42;101035.13;5015601;28;1079;-85
2022/09/05 08:16:23;;;;;;;;;;;;;;;18.23;82.51;101034.78;5013855;28;1439;-85
2022/09/05 08:19:26;;;;;;;;;;;;;;;18.23;82.28;101030.06;5019083;28;1388;-85
2022/09/05 08:21:53;;;;;;;;;;;;;;;18.24;81.67;101033.66;4997109;28;1207;-85
2022/09/05 08:24:23;;;;;;;;;;;;;;;18.24;83.01;101037.25;4998092;28;1204;-85
2022/09/05 08:26:48;;;;;;;;;;;;;;;18.25;82.43;101033.34;4998271;28;1291;-85
2022/09/05 08:29:13;;;;;;;;;;;;;;;18.25;82.89;101033.34;4997929;28;1237;-85
2022/09/05 08:31:51;;;;;;;;;;;;;;;18.22;82.44;101022.91;5003414;28;1430;-85
2022/09/05 08:34:22;;;;;;;;;;;;;;;18.20;83.79;101027.97;5017792;28;1311;-85
2022/09/05 08:36:48;;;;;;;;;;;;;;;18.19;83.38;101019.97;5026745;28;1210;-85
2022/09/05 08:39:21;;;;;;;;;;;;;;;18.21;84.08;101025.97;5021728;28;1961;-85
2022/09/05 08:41:55;;;;;;;;;;;;;;;18.27;84.17;101020.00;5017922;28;929;-85
2022/09/05 08:44:39;;;;;;;;;;;;;;;18.35;83.11;101023.94;5018233;28;1021;-85
2022/09/05 08:47:18;;;;;;;;;;;;;;;18.37;83.78;101024.44;5016935;28;1255;-85
2022/09/05 08:50:01;;;;;;;;;;;;;;;18.46;81.84;101028.03;5017334;28;1482;-85
2022/09/05 08:52:41;;;;;;;;;;;;;;;18.53;82.72;101018.16;5016344;28;1164;-85
2022/09/05 08:55:13;;;;;;;;;;;;;;;18.64;80.81;101012.31;5016712;28;1257;-85
2022/09/05 08:57:50;;;;;;;;;;;;;;;18.74;80.78;101010.06;5017070;28;1171;-85
2022/09/05 09:00:16;;;;;;;;;;;;;;;18.79;80.70;101009.13;5018511;28;1902;-85
2022/09/05 09:03:14;;;;;;;;;;;;;;;18.85;81.51;101005.84;5018106;28;799;-85
2022/09/05 09:05:56;;;;;;;;;;;;;;;18.97;80.88;101004.41;4996663;28;1436;-85
2022/09/05 09:08:34;;;;;;;;;;;;;;;18.97;79.95;100993.31;5016871;28;1325;-85
2022/09/05 09:11:04;;;;;;;;;;;;;;;18.98;81.02;100992.16;5017279;28;1246;-85
2022/09/05 09:13:35;;;;;;;;;;;;;;;19.04;80.99;100999.19;5018037;28;1255;-86
2022/09/05 09:16:03;;;;;;;;;;;;;;;19.09;82.16;100987.94;5018084;28;986;-86
2022/09/05 09:18:42;;;;;;;;;;;;;;;19.11;81.70;100989.25;5016329;28;1225;-86
2022/09/05 09:21:26;;;;;;;;;;;;;;;19.20;81.54;100981.75;5016112;28;1874;-86
2022/09/05 09:24:01;;;;;;;;;;;;;;;19.28;81.26;100986.47;5007026;28;1390;-87
2022/09/05 09:26:33;;;;;;;;;;;;;;;19.33;81.94;100982.69;5017164;28;1248;-86
2022/09/05 09:29:02;;;;;;;;;;;;;;;19.37;82.31;100977.31;5015031;28;1273;-86
2022/09/05 09:31:36;;;;;;;;;;;;;;;19.41;82.65;100979.09;5017817;28;968;-86
2022/09/05 09:34:20;;;;;;;;;;;;;;;19.49;81.75;100983.03;5017654;28;1453;-85
2022/09/05 09:36:54;;;;;;;;;;;;;;;19.49;80.93;100972.75;5016135;28;1222;-86
2022/09/05 09:39:25;;;;;;;;;;;;;;;19.57;81.80;100971.91;5016410;28;1894;-86
2022/09/05 09:41:59;;;;;;;;;;;;;;;19.61;81.42;100969.31;5015200;28;1207;-86
2022/09/05 09:44:48;;;;;;;;;;;;;;;19.59;80.43;100961.31;5016913;28;1021;-86
2022/09/05 09:47:19;;;;;;;;;;;;;;;19.73;80.42;100958.34;5016253;28;985;-86
2022/09/05 09:50:03;;;;;;;;;;;;;;;19.74;79.34;100951.63;5016145;28;1217;-85
2022/09/05 09:52:43;;;;;;;;;;;;;;;19.82;79.01;100950.00;5015544;28;1012;-85
2022/09/05 09:55:23;;;;;;;;;;;;;;;19.94;80.05;100950.09;5014440;28;1554;-85
2022/09/05 09:58:02;;;;;;;;;;;;;;;19.94;80.47;100950.91;5013803;28;1226;-85
2022/09/05 10:00:32;;;;;;;;;;;;;;;20.00;79.78;100948.75;5014098;28;1981;-85
2022/09/05 10:03:27;;;;;;;;;;;;;;;20.03;79.29;100948.91;5014463;28;1294;-86
2022/09/05 10:06:08;;;;;;;;;;;;;;;20.12;80.33;100948.88;5013808;28;1215;-85
2022/09/05 10:08:39;;;;;;;;;;;;;;;20.12;79.41;100940.53;5014359;28;1266;-85
2022/09/05 10:11:35;;;;;;;;;;;;;;;20.16;78.50;100938.72;5026758;28;1458;-86
2022/09/05 10:14:13;;;;;;;;;;;;;;;20.32;77.43;100939.81;5027771;28;1413;-86
2022/09/05 10:16:51;;;;;;;;;;;;;;;20.28;77.79;100938.00;5033833;28;1286;-86
2022/09/05 10:19:33;;;;;;;;;;;;;;;20.35;78.40;100930.81;5033703;28;1879;-85
2022/09/05 10:22:01;;;;;;;;;;;;;;;20.34;77.72;100931.13;5034090;28;1005;-86
2022/09/05 10:24:36;;;;;;;;;;;;;;;20.38;76.09;100932.94;5028184;28;1749;-86
2022/09/05 10:27:01;;;;;;;;;;;;;;;20.50;75.55;100932.19;4999376;28;1157;-86
2022/09/05 10:29:44;;;;;;;;;;;;;;;20.56;75.65;100927.25;4996835;28;1209;-86
2022/09/05 10:32:13;;;;;;;;;;;;;;;20.55;76.27;100922.84;4996191;28;1278;-85
2022/09/05 10:34:57;;;;;;;;;;;;;;;20.56;76.83;100918.91;5002399;28;1200;-86
2022/09/05 10:37:30;;;;;;;;;;;;;;;20.68;75.87;100925.34;5013711;28;1041;-85
2022/09/05 10:39:58;;;;;;;;;;;;;;;20.67;75.84;100920.94;5015000;28;1867;-86
2022/09/05 10:42:33;;;;;;;;;;;;;;;20.76;74.72;100918.09;5015416;28;1598;-86
2022/09/05 10:45:01;;;;;;;;;;;;;;;20.80;76.02;100910.72;5014711;28;1230;-86
2022/09/05 10:47:35;;;;;;;;;;;;;;;20.86;74.20;100905.75;5015486;28;938;-86
2022/09/05 10:50:24;;;;;;;;;;;;;;;20.89;74.64;100913.44;5014472;28;1283;-86
2022/09/05 10:52:49;;;;;;;;;;;;;;;21.19;75.81;100903.84;5014425;28;1424;-85
2022/09/05 10:55:25;;;;;;;;;;;;;;;21.19;75.27;100908.59;5014722;28;1014;-86
2022/09/05 10:57:56;;;;;;;;;;;;;;;21.04;74.83;100898.88;5014333;28;1764;-85
2022/09/05 11:00:46;;;;;;;;;;;;;;;21.07;74.73;100890.69;5015372;28;1897;-85
2022/09/05 11:03:15;;;;;;;;;;;;;;;21.24;72.21;100894.47;5014264;28;1367;-86
2022/09/05 11:05:47;;;;;;;;;;;;;;;21.20;72.41;100888.78;5017713;28;890;-86
2022/09/05 11:08:33;;;;;;;;;;;;;;;21.26;71.87;100894.97;5015507;28;1232;-86
2022/09/05 11:11:02;;;;;;;;;;;;;;;21.24;71.91;100894.47;5015279;28;1072;-85
2022/09/05 11:13:42;;;;;;;;;;;;;;;21.30;72.13;100884.75;5011242;28;1407;-87
2022/09/05 11:16:07;;;;;;;;;;;;;;;21.43;71.98;100884.47;5015527;28;1366;-85
2022/09/05 11:18:41;;;;;;;;;;;;;;;21.45;70.08;100876.56;5012289;28;1288;-86
2022/09/05 11:21:07;;;;;;;;;;;;;;;21.50;70.01;100872.75;5013172;28;1961;-86
2022/09/05 11:23:40;;;;;;;;;;;;;;;21.59;69.49;100873.47;5015519;28;894;-86
2022/09/05 11:26:07;;;;;;;;;;;;;;;21.58;69.75;100863.47;5013446;28;1359;-87
2022/09/05 11:28:37;;;;;;;;;;;;;;;21.55;70.48;100868.91;5013470;28;1387;-86
2022/09/05 11:31:06;;;;;;;;;;;;;;;21.55;69.25;100860.56;5012933;28;1530;-86
2022/09/05 11:33:45;;;;;;;;;;;;;;;21.53;68.87;100863.69;5014817;28;1080;-86
2022/09/05 11:36:17;;;;;;;;;;;;;;;21.65;69.65;100860.94;5014649;28;1736;-86
2022/09/05 11:38:58;;;;;;;;;;;;;;;21.79;69.11;100864.19;5013234;28;1296;-86
2022/09/05 11:41:43;;;;;;;;;;;;;;;21.82;69.85;100866.28;5013804;28;1223;-87
2022/09/05 11:44:27;;;;;;;;;;;;;;;21.98;69.00;100863.66;5013517;28;1326;-85
2022/09/05 11:47:11;;;;;;;;;;;;;;;22.05;67.31;100858.31;5013253;28;1361;-85
2022/09/05 11:49:36;;;;;;;;;;;;;;;22.04;68.87;100858.66;5014282;28;1178;-85
2022/09/05 11:52:04;;;;;;;;;;;;;;;22.03;68.45;100852.25;5014929;28;1257;-85
2022/09/05 11:54:49;;;;;;;;;;;;;;;22.05;69.31;100852.72;5018360;28;1329;-85
2022/09/05 11:57:14;;;;;;;;;;;;;;;22.05;65.40;100849.13;5018175;28;1218;-85
2022/09/05 11:59:55;;;;;;;;;;;;;;;22.10;65.23;100849.72;5018854;28;1902;-85
2022/09/05 12:02:48;;;;;;;;;;;;;;;22.22;65.26;100844.13;5017357;28;1608;-88
2022/09/05 12:05:25;;;;;;;;;;;;;;;22.41;64.82;100853.84;5017881;28;890;-87
2022/09/05 12:08:03;;;;;;;;;;;;;;;22.46;64.76;100845.22;5016945;28;1201;-87
2022/09/05 12:10:43;;;;;;;;;;;;;;;22.47;63.92;100844.88;5018676;28;827;-87
2022/09/05 12:13:30;;;;;;;;;;;;;;;22.41;63.66;100832.34;5024955;28;1188;-87
2022/09/05 12:15:58;;;;;;;;;;;;;;;22.52;65.24;100829.88;5023126;28;1318;-87
2022/09/05 12:18:43;;;;;;;;;;;;;;;22.36;65.46;100829.00;5018471;28;1582;-87
2022/09/05 12:21:31;;;;;;;;;;;;;;;22.24;65.54;100836.22;5016567;28;1953;-89
2022/09/05 12:24:02;;;;;;;;;;;;;;;22.37;66.54;100833.41;5006867;28;1506;-87
2022/09/05 12:27:00;;;;;;;;;;;;;;;22.69;63.40;100823.22;5016569;28;1211;-87
2022/09/05 12:29:26;;;;;;;;;;;;;;;23.05;61.88;100825.06;5004742;28;1351;-88
2022/09/05 12:31:59;;;;;;;;;;;;;;;23.01;60.76;100820.19;5016265;28;1250;-87
2022/09/05 12:34:40;;;;;;;;;;;;;;;23.10;62.36;100822.81;5016504;28;1232;-88
2022/09/05 12:37:09;;;;;;;;;;;;;;;23.24;60.32;100822.38;5016674;28;1255;-88
2022/09/05 12:39:41;;;;;;;;;;;;;;;23.32;58.81;100821.41;5018378;28;1898;-88
2022/09/05 12:42:08;;;;;;;;;;;;;;;23.27;60.39;100814.13;5017079;28;1318;-87
2022/09/05 12:44:41;;;;;;;;;;;;;;;23.29;59.33;100809.00;5016545;28;1247;-87
2022/09/05 12:47:09;;;;;;;;;;;;;;;23.30;58.35;100812.59;5017212;28;1012;-87
2022/09/05 12:49:38;;;;;;;;;;;;;;;23.62;56.28;100813.44;5015922;28;1463;-87
2022/09/05 12:52:07;;;;;;;;;;;;;;;23.68;55.97;100807.22;5017186;28;1660;-87
2022/09/05 12:54:43;;;;;;;;;;;;;;;23.70;55.55;100804.88;5015597;28;1340;-87
2022/09/05 12:57:27;;;;;;;;;;;;;;;23.87;54.33;100794.50;5015495;28;1266;-88
2022/09/05 12:59:56;;;;;;;;;;;;;;;23.95;54.97;100791.50;5015416;28;1969;-87
2022/09/05 13:02:24;;;;;;;;;;;;;;;24.00;55.20;100788.41;5016593;28;875;-88
2022/09/05 13:04:55;;;;;;;;;;;;;;;25.39;53.41;100782.91;5015272;28;1746;-85
2022/09/05 13:07:22;;;;;;;;;;;;;;;31.55;43.54;100776.81;5016933;28;854;-87
2022/09/05 13:09:55;;;;;;;;;;;;;;;34.66;37.43;100772.72;5016899;28;1320;-88
2022/09/05 13:12:26;;;;;;;;;;;;;;;36.28;35.75;100767.16;5015060;28;1265;-88
2022/09/05 13:15:11;;;;;;;;;;;;;;;34.02;36.99;100774.00;5015298;28;1261;-88
2022/09/05 13:17:38;;;;;;;;;;;;;;;30.99;40.34;100772.31;5015086;28;1418;-88
2022/09/05 13:20:08;;;;;;;;;;;;;;;29.79;43.11;100770.66;5014867;28;1956;-88
2022/09/05 13:22:37;;;;;;;;;;;;;;;29.28;44.09;100762.56;5015184;28;1190;-88
2022/09/05 13:25:07;;;;;;;;;;;;;;;27.39;44.49;100763.56;5015083;28;1230;-87
2022/09/05 13:27:38;;;;;;;;;;;;;;;26.06;47.49;100760.75;5016047;28;1017;-88
2022/09/05 13:30:08;;;;;;;;;;;;;;;25.46;46.73;100755.81;5015068;28;1345;-87